Terminal Aerodrome Forecast
Issued by NWS

Home | Current Version | Previous Version | Text Only | Print | Product List | Glossary On
Versions: 1 2 3 4 5 6 7 8 9 10 11 12 13 14 15 16 17
000
FTUS41 KALY 231700
TAFPSF
TAF
KPSF 231736Z 2318/2418 22008KT P6SM SCT040
     FM232100 22008KT P6SM VCSH SCT040
      TEMPO 2323/2324 VRB10G25KT 3SM -TSRA BR SCT020 OVC035CB
     FM240400 29003KT P6SM BKN050 BKN100
     FM240900 29003KT 6SM BR SCT050 BKN100
     FM241300 31007KT P6SM SCT005 SCT100=

USA.gov is the U.S. government's official web portal to all federal, state and local government web resources and services.